sensor_id;sensor_type;location;lat;lon;timestamp;P1;durP1;ratioP1;P2;durP2;ratioP2
66402;SDS011;53212;52.112;5.144;2023-07-13T00:00:29;7.60;;;2.70;;
66402;SDS011;53212;52.112;5.144;2023-07-13T00:02:55;9.20;;;2.60;;
66402;SDS011;53212;52.112;5.144;2023-07-13T00:05:22;10.30;;;2.60;;
66402;SDS011;53212;52.112;5.144;2023-07-13T00:07:49;10.40;;;2.40;;
66402;SDS011;53212;52.112;5.144;2023-07-13T00:10:16;13.20;;;2.90;;
66402;SDS011;53212;52.112;5.144;2023-07-13T00:12:41;10.00;;;2.40;;
66402;SDS011;53212;52.112;5.144;2023-07-13T00:15:19;8.60;;;2.40;;
66402;SDS011;53212;52.112;5.144;2023-07-13T00:17:54;8.50;;;2.00;;
66402;SDS011;53212;52.112;5.144;2023-07-13T00:20:22;10.20;;;2.80;;
66402;SDS011;53212;52.112;5.144;2023-07-13T00:22:50;9.20;;;2.70;;
66402;SDS011;53212;52.112;5.144;2023-07-13T00:25:19;6.40;;;2.10;;
66402;SDS011;53212;52.112;5.144;2023-07-13T00:27:47;8.10;;;2.40;;
66402;SDS011;53212;52.112;5.144;2023-07-13T00:30:14;7.50;;;2.30;;
66402;SDS011;53212;52.112;5.144;2023-07-13T00:32:40;8.80;;;2.80;;
66402;SDS011;53212;52.112;5.144;2023-07-13T00:35:06;8.40;;;2.00;;
66402;SDS011;53212;52.112;5.144;2023-07-13T00:37:33;6.80;;;2.20;;
66402;SDS011;53212;52.112;5.144;2023-07-13T00:40:02;9.50;;;2.50;;
66402;SDS011;53212;52.112;5.144;2023-07-13T00:42:29;7.60;;;2.10;;
66402;SDS011;53212;52.112;5.144;2023-07-13T00:47:37;12.40;;;2.30;;
66402;SDS011;53212;52.112;5.144;2023-07-13T00:50:04;6.60;;;2.20;;
66402;SDS011;53212;52.112;5.144;2023-07-13T00:52:33;5.60;;;2.20;;
66402;SDS011;53212;52.112;5.144;2023-07-13T00:55:01;8.70;;;2.30;;
66402;SDS011;53212;52.112;5.144;2023-07-13T00:57:28;8.20;;;2.10;;
66402;SDS011;53212;52.112;5.144;2023-07-13T00:59:55;8.40;;;2.40;;
66402;SDS011;53212;52.112;5.144;2023-07-13T01:02:25;10.00;;;2.30;;
66402;SDS011;53212;52.112;5.144;2023-07-13T01:04:51;8.60;;;2.20;;
66402;SDS011;53212;52.112;5.144;2023-07-13T01:07:17;6.00;;;1.90;;
66402;SDS011;53212;52.112;5.144;2023-07-13T01:09:43;6.60;;;2.10;;
66402;SDS011;53212;52.112;5.144;2023-07-13T01:12:10;7.40;;;2.20;;
66402;SDS011;53212;52.112;5.144;2023-07-13T01:14:37;7.40;;;2.20;;
66402;SDS011;53212;52.112;5.144;2023-07-13T01:17:02;7.10;;;2.00;;
66402;SDS011;53212;52.112;5.144;2023-07-13T01:19:36;11.60;;;2.50;;
66402;SDS011;53212;52.112;5.144;2023-07-13T01:22:25;7.20;;;2.00;;
66402;SDS011;53212;52.112;5.144;2023-07-13T01:24:52;8.00;;;2.20;;
66402;SDS011;53212;52.112;5.144;2023-07-13T01:27:24;9.30;;;2.00;;
66402;SDS011;53212;52.112;5.144;2023-07-13T01:29:51;8.70;;;2.20;;
66402;SDS011;53212;52.112;5.144;2023-07-13T01:32:22;6.50;;;2.20;;
66402;SDS011;53212;52.112;5.144;2023-07-13T01:34:51;8.40;;;2.40;;
66402;SDS011;53212;52.112;5.144;2023-07-13T01:37:19;5.90;;;2.10;;
66402;SDS011;53212;52.112;5.144;2023-07-13T01:39:44;9.20;;;2.30;;
66402;SDS011;53212;52.112;5.144;2023-07-13T01:42:10;6.70;;;2.10;;
66402;SDS011;53212;52.112;5.144;2023-07-13T01:44:35;9.20;;;2.40;;
66402;SDS011;53212;52.112;5.144;2023-07-13T01:47:02;8.70;;;2.50;;
66402;SDS011;53212;52.112;5.144;2023-07-13T01:49:28;10.80;;;2.70;;
66402;SDS011;53212;52.112;5.144;2023-07-13T01:51:53;7.60;;;2.50;;
66402;SDS011;53212;52.112;5.144;2023-07-13T01:54:19;11.90;;;2.60;;
66402;SDS011;53212;52.112;5.144;2023-07-13T01:56:44;6.70;;;2.40;;
66402;SDS011;53212;52.112;5.144;2023-07-13T01:59:10;5.90;;;2.00;;
66402;SDS011;53212;52.112;5.144;2023-07-13T02:01:35;15.00;;;2.50;;
66402;SDS011;53212;52.112;5.144;2023-07-13T02:04:01;7.00;;;2.30;;
66402;SDS011;53212;52.112;5.144;2023-07-13T02:06:27;5.80;;;2.00;;
66402;SDS011;53212;52.112;5.144;2023-07-13T02:08:53;8.00;;;2.20;;
66402;SDS011;53212;52.112;5.144;2023-07-13T02:11:18;10.40;;;2.70;;
66402;SDS011;53212;52.112;5.144;2023-07-13T02:13:44;8.50;;;2.30;;
66402;SDS011;53212;52.112;5.144;2023-07-13T02:16:09;5.80;;;2.10;;
66402;SDS011;53212;52.112;5.144;2023-07-13T02:18:35;8.60;;;2.40;;
66402;SDS011;53212;52.112;5.144;2023-07-13T02:21:00;8.50;;;2.50;;
66402;SDS011;53212;52.112;5.144;2023-07-13T02:23:26;7.10;;;2.00;;
66402;SDS011;53212;52.112;5.144;2023-07-13T02:25:56;7.50;;;2.60;;
66402;SDS011;53212;52.112;5.144;2023-07-13T02:28:22;10.70;;;2.50;;
66402;SDS011;53212;52.112;5.144;2023-07-13T02:30:47;7.90;;;2.50;;
66402;SDS011;53212;52.112;5.144;2023-07-13T02:33:13;10.20;;;3.10;;
66402;SDS011;53212;52.112;5.144;2023-07-13T02:35:38;8.20;;;2.40;;
66402;SDS011;53212;52.112;5.144;2023-07-13T02:38:04;13.10;;;3.30;;
66402;SDS011;53212;52.112;5.144;2023-07-13T02:40:29;7.60;;;2.40;;
66402;SDS011;53212;52.112;5.144;2023-07-13T02:42:58;10.40;;;2.80;;
66402;SDS011;53212;52.112;5.144;2023-07-13T02:45:25;7.40;;;2.70;;
66402;SDS011;53212;52.112;5.144;2023-07-13T02:47:50;9.80;;;3.10;;
66402;SDS011;53212;52.112;5.144;2023-07-13T02:50:16;9.10;;;3.00;;
66402;SDS011;53212;52.112;5.144;2023-07-13T02:52:42;11.40;;;3.40;;
66402;SDS011;53212;52.112;5.144;2023-07-13T02:55:07;10.30;;;3.10;;
66402;SDS011;53212;52.112;5.144;2023-07-13T02:57:33;12.50;;;3.80;;
66402;SDS011;53212;52.112;5.144;2023-07-13T02:59:59;8.70;;;3.10;;
66402;SDS011;53212;52.112;5.144;2023-07-13T03:02:25;6.70;;;2.50;;
66402;SDS011;53212;52.112;5.144;2023-07-13T03:04:54;16.10;;;3.30;;
66402;SDS011;53212;52.112;5.144;2023-07-13T03:07:20;9.50;;;2.70;;
66402;SDS011;53212;52.112;5.144;2023-07-13T03:09:45;12.40;;;2.80;;
66402;SDS011;53212;52.112;5.144;2023-07-13T03:12:11;11.10;;;3.00;;
66402;SDS011;53212;52.112;5.144;2023-07-13T03:14:36;8.40;;;2.10;;
66402;SDS011;53212;52.112;5.144;2023-07-13T03:17:02;9.30;;;2.30;;
66402;SDS011;53212;52.112;5.144;2023-07-13T03:19:27;9.10;;;2.50;;
66402;SDS011;53212;52.112;5.144;2023-07-13T03:21:53;11.50;;;2.50;;
66402;SDS011;53212;52.112;5.144;2023-07-13T03:24:19;6.40;;;2.40;;
66402;SDS011;53212;52.112;5.144;2023-07-13T03:26:45;10.60;;;2.60;;
66402;SDS011;53212;52.112;5.144;2023-07-13T03:29:11;9.90;;;2.50;;
66402;SDS011;53212;52.112;5.144;2023-07-13T03:31:36;8.00;;;2.20;;
66402;SDS011;53212;52.112;5.144;2023-07-13T03:34:02;9.00;;;2.60;;
66402;SDS011;53212;52.112;5.144;2023-07-13T03:36:29;7.80;;;2.30;;
66402;SDS011;53212;52.112;5.144;2023-07-13T03:38:57;11.10;;;2.40;;
66402;SDS011;53212;52.112;5.144;2023-07-13T03:41:25;10.30;;;2.60;;
66402;SDS011;53212;52.112;5.144;2023-07-13T03:43:51;7.90;;;2.10;;
66402;SDS011;53212;52.112;5.144;2023-07-13T03:46:17;10.70;;;2.70;;
66402;SDS011;53212;52.112;5.144;2023-07-13T03:48:44;10.20;;;2.70;;
66402;SDS011;53212;52.112;5.144;2023-07-13T03:51:12;8.00;;;2.60;;
66402;SDS011;53212;52.112;5.144;2023-07-13T03:53:40;10.70;;;3.60;;
66402;SDS011;53212;52.112;5.144;2023-07-13T03:56:07;9.40;;;3.40;;
66402;SDS011;53212;52.112;5.144;2023-07-13T03:58:38;10.60;;;2.60;;
66402;SDS011;53212;52.112;5.144;2023-07-13T04:01:06;10.50;;;3.20;;
66402;SDS011;53212;52.112;5.144;2023-07-13T04:03:34;11.30;;;2.70;;
66402;SDS011;53212;52.112;5.144;2023-07-13T04:06:02;7.80;;;2.90;;
66402;SDS011;53212;52.112;5.144;2023-07-13T04:08:30;9.40;;;3.10;;
66402;SDS011;53212;52.112;5.144;2023-07-13T04:10:58;9.20;;;3.10;;
66402;SDS011;53212;52.112;5.144;2023-07-13T04:13:24;10.80;;;3.30;;
66402;SDS011;53212;52.112;5.144;2023-07-13T04:15:51;12.30;;;3.70;;
66402;SDS011;53212;52.112;5.144;2023-07-13T04:18:17;12.30;;;3.30;;
66402;SDS011;53212;52.112;5.144;2023-07-13T04:20:45;12.70;;;3.40;;
66402;SDS011;53212;52.112;5.144;2023-07-13T04:23:11;10.70;;;3.50;;
66402;SDS011;53212;52.112;5.144;2023-07-13T04:25:37;11.50;;;4.20;;
66402;SDS011;53212;52.112;5.144;2023-07-13T04:28:03;15.40;;;3.90;;
66402;SDS011;53212;52.112;5.144;2023-07-13T04:30:30;12.50;;;4.20;;
66402;SDS011;53212;52.112;5.144;2023-07-13T04:32:56;12.50;;;4.40;;
66402;SDS011;53212;52.112;5.144;2023-07-13T04:35:21;11.40;;;4.20;;
66402;SDS011;53212;52.112;5.144;2023-07-13T04:37:50;15.90;;;4.10;;
66402;SDS011;53212;52.112;5.144;2023-07-13T04:40:17;13.00;;;4.20;;
66402;SDS011;53212;52.112;5.144;2023-07-13T04:42:44;12.80;;;4.30;;
66402;SDS011;53212;52.112;5.144;2023-07-13T04:45:10;7.90;;;3.40;;
66402;SDS011;53212;52.112;5.144;2023-07-13T04:47:36;12.20;;;3.60;;
66402;SDS011;53212;52.112;5.144;2023-07-13T04:50:02;16.30;;;4.10;;
66402;SDS011;53212;52.112;5.144;2023-07-13T04:52:28;13.50;;;4.00;;
66402;SDS011;53212;52.112;5.144;2023-07-13T04:54:53;14.20;;;4.70;;
66402;SDS011;53212;52.112;5.144;2023-07-13T04:57:19;11.70;;;3.80;;
66402;SDS011;53212;52.112;5.144;2023-07-13T04:59:44;16.20;;;4.40;;
66402;SDS011;53212;52.112;5.144;2023-07-13T05:02:10;14.70;;;4.20;;
66402;SDS011;53212;52.112;5.144;2023-07-13T05:04:35;11.20;;;3.50;;
66402;SDS011;53212;52.112;5.144;2023-07-13T05:07:01;14.90;;;4.30;;
66402;SDS011;53212;52.112;5.144;2023-07-13T05:09:26;14.30;;;4.20;;
66402;SDS011;53212;52.112;5.144;2023-07-13T05:11:52;12.40;;;4.40;;
66402;SDS011;53212;52.112;5.144;2023-07-13T05:14:17;14.10;;;4.40;;
66402;SDS011;53212;52.112;5.144;2023-07-13T05:16:46;17.70;;;4.50;;
66402;SDS011;53212;52.112;5.144;2023-07-13T05:19:11;16.00;;;4.60;;
66402;SDS011;53212;52.112;5.144;2023-07-13T05:21:37;11.60;;;3.90;;
66402;SDS011;53212;52.112;5.144;2023-07-13T05:24:03;12.90;;;4.20;;
66402;SDS011;53212;52.112;5.144;2023-07-13T05:26:28;10.40;;;4.00;;
66402;SDS011;53212;52.112;5.144;2023-07-13T05:28:54;16.50;;;3.70;;
66402;SDS011;53212;52.112;5.144;2023-07-13T05:31:20;14.70;;;3.70;;
66402;SDS011;53212;52.112;5.144;2023-07-13T05:33:45;11.40;;;4.60;;
66402;SDS011;53212;52.112;5.144;2023-07-13T05:36:11;13.80;;;4.20;;
66402;SDS011;53212;52.112;5.144;2023-07-13T05:38:36;13.20;;;4.40;;
66402;SDS011;53212;52.112;5.144;2023-07-13T05:41:02;11.80;;;3.80;;
66402;SDS011;53212;52.112;5.144;2023-07-13T05:43:27;12.10;;;4.50;;
66402;SDS011;53212;52.112;5.144;2023-07-13T05:45:54;10.50;;;4.00;;
66402;SDS011;53212;52.112;5.144;2023-07-13T05:48:20;11.70;;;3.80;;
66402;SDS011;53212;52.112;5.144;2023-07-13T05:50:47;12.00;;;3.90;;
66402;SDS011;53212;52.112;5.144;2023-07-13T05:53:13;14.50;;;4.40;;
66402;SDS011;53212;52.112;5.144;2023-07-13T05:55:42;12.50;;;3.80;;
66402;SDS011;53212;52.112;5.144;2023-07-13T05:58:19;11.20;;;3.60;;
66402;SDS011;53212;52.112;5.144;2023-07-13T06:00:45;10.70;;;3.90;;
66402;SDS011;53212;52.112;5.144;2023-07-13T06:03:12;14.20;;;4.10;;
66402;SDS011;53212;52.112;5.144;2023-07-13T06:05:38;15.00;;;4.50;;
66402;SDS011;53212;52.112;5.144;2023-07-13T06:08:05;12.30;;;4.30;;
66402;SDS011;53212;52.112;5.144;2023-07-13T06:10:33;9.40;;;3.80;;
66402;SDS011;53212;52.112;5.144;2023-07-13T06:12:59;11.70;;;3.90;;
66402;SDS011;53212;52.112;5.144;2023-07-13T06:15:24;12.40;;;4.00;;
66402;SDS011;53212;52.112;5.144;2023-07-13T06:17:50;13.60;;;4.10;;
66402;SDS011;53212;52.112;5.144;2023-07-13T06:20:15;13.30;;;4.50;;
66402;SDS011;53212;52.112;5.144;2023-07-13T06:22:41;11.70;;;4.20;;
66402;SDS011;53212;52.112;5.144;2023-07-13T06:25:07;9.40;;;3.60;;
66402;SDS011;53212;52.112;5.144;2023-07-13T06:27:32;14.40;;;4.30;;
66402;SDS011;53212;52.112;5.144;2023-07-13T06:29:58;9.10;;;3.90;;
66402;SDS011;53212;52.112;5.144;2023-07-13T06:32:23;14.60;;;4.00;;
66402;SDS011;53212;52.112;5.144;2023-07-13T06:34:49;11.80;;;4.80;;
66402;SDS011;53212;52.112;5.144;2023-07-13T06:37:17;13.70;;;4.30;;
66402;SDS011;53212;52.112;5.144;2023-07-13T06:39:43;13.30;;;4.80;;
66402;SDS011;53212;52.112;5.144;2023-07-13T06:42:08;15.80;;;4.60;;
66402;SDS011;53212;52.112;5.144;2023-07-13T06:44:34;13.10;;;4.30;;
66402;SDS011;53212;52.112;5.144;2023-07-13T06:47:00;9.50;;;3.50;;
66402;SDS011;53212;52.112;5.144;2023-07-13T06:49:25;11.30;;;4.30;;
66402;SDS011;53212;52.112;5.144;2023-07-13T06:51:51;13.60;;;4.30;;
66402;SDS011;53212;52.112;5.144;2023-07-13T06:54:16;12.50;;;4.70;;
66402;SDS011;53212;52.112;5.144;2023-07-13T06:56:42;13.60;;;5.10;;
66402;SDS011;53212;52.112;5.144;2023-07-13T06:59:08;12.60;;;4.60;;
66402;SDS011;53212;52.112;5.144;2023-07-13T07:01:33;10.60;;;4.90;;
66402;SDS011;53212;52.112;5.144;2023-07-13T07:03:59;9.70;;;4.80;;
66402;SDS011;53212;52.112;5.144;2023-07-13T07:06:24;10.10;;;4.20;;
66402;SDS011;53212;52.112;5.144;2023-07-13T07:08:51;5.80;;;2.40;;
66402;SDS011;53212;52.112;5.144;2023-07-13T07:11:22;3.40;;;1.90;;
66402;SDS011;53212;52.112;5.144;2023-07-13T07:13:51;4.90;;;2.10;;
66402;SDS011;53212;52.112;5.144;2023-07-13T07:16:17;4.90;;;2.00;;
66402;SDS011;53212;52.112;5.144;2023-07-13T07:18:44;4.60;;;2.40;;
66402;SDS011;53212;52.112;5.144;2023-07-13T07:21:09;6.70;;;2.60;;
66402;SDS011;53212;52.112;5.144;2023-07-13T07:23:35;5.60;;;2.80;;
66402;SDS011;53212;52.112;5.144;2023-07-13T07:26:01;5.20;;;2.30;;
66402;SDS011;53212;52.112;5.144;2023-07-13T07:28:26;8.20;;;3.30;;
66402;SDS011;53212;52.112;5.144;2023-07-13T07:30:55;6.40;;;2.90;;
66402;SDS011;53212;52.112;5.144;2023-07-13T07:33:22;7.40;;;2.90;;
66402;SDS011;53212;52.112;5.144;2023-07-13T07:35:48;8.10;;;3.50;;
66402;SDS011;53212;52.112;5.144;2023-07-13T07:38:14;9.70;;;3.50;;
66402;SDS011;53212;52.112;5.144;2023-07-13T07:40:40;5.70;;;3.00;;
66402;SDS011;53212;52.112;5.144;2023-07-13T07:43:07;8.40;;;3.40;;
66402;SDS011;53212;52.112;5.144;2023-07-13T07:45:34;9.90;;;4.10;;
66402;SDS011;53212;52.112;5.144;2023-07-13T07:48:01;8.70;;;3.60;;
66402;SDS011;53212;52.112;5.144;2023-07-13T07:50:27;9.60;;;4.00;;
66402;SDS011;53212;52.112;5.144;2023-07-13T07:52:53;8.90;;;4.00;;
66402;SDS011;53212;52.112;5.144;2023-07-13T07:55:21;11.00;;;4.20;;
66402;SDS011;53212;52.112;5.144;2023-07-13T07:57:48;7.20;;;4.20;;
66402;SDS011;53212;52.112;5.144;2023-07-13T08:00:15;9.80;;;3.70;;
66402;SDS011;53212;52.112;5.144;2023-07-13T08:02:41;10.60;;;4.60;;
66402;SDS011;53212;52.112;5.144;2023-07-13T08:05:10;9.50;;;3.90;;
66402;SDS011;53212;52.112;5.144;2023-07-13T08:07:37;10.30;;;4.20;;
66402;SDS011;53212;52.112;5.144;2023-07-13T08:10:04;11.60;;;4.50;;
66402;SDS011;53212;52.112;5.144;2023-07-13T08:12:37;8.10;;;3.90;;
66402;SDS011;53212;52.112;5.144;2023-07-13T08:15:04;9.50;;;3.30;;
66402;SDS011;53212;52.112;5.144;2023-07-13T08:17:30;7.40;;;2.90;;
66402;SDS011;53212;52.112;5.144;2023-07-13T08:19:56;5.80;;;2.80;;
66402;SDS011;53212;52.112;5.144;2023-07-13T08:22:21;4.60;;;2.30;;
66402;SDS011;53212;52.112;5.144;2023-07-13T08:24:47;5.40;;;2.30;;
66402;SDS011;53212;52.112;5.144;2023-07-13T08:27:20;2.40;;;1.70;;
66402;SDS011;53212;52.112;5.144;2023-07-13T08:29:47;3.90;;;2.10;;
66402;SDS011;53212;52.112;5.144;2023-07-13T08:32:14;3.90;;;1.70;;
66402;SDS011;53212;52.112;5.144;2023-07-13T08:34:39;2.50;;;1.70;;
66402;SDS011;53212;52.112;5.144;2023-07-13T08:37:05;3.00;;;1.80;;
66402;SDS011;53212;52.112;5.144;2023-07-13T08:39:31;2.40;;;1.40;;
66402;SDS011;53212;52.112;5.144;2023-07-13T08:42:36;2.70;;;1.50;;
66402;SDS011;53212;52.112;5.144;2023-07-13T08:45:23;3.70;;;1.50;;
66402;SDS011;53212;52.112;5.144;2023-07-13T08:48:05;3.10;;;1.80;;
66402;SDS011;53212;52.112;5.144;2023-07-13T08:50:46;4.40;;;2.20;;
66402;SDS011;53212;52.112;5.144;2023-07-13T08:53:16;2.40;;;1.80;;
66402;SDS011;53212;52.112;5.144;2023-07-13T08:55:42;5.60;;;2.60;;
66402;SDS011;53212;52.112;5.144;2023-07-13T08:58:13;3.30;;;1.90;;
66402;SDS011;53212;52.112;5.144;2023-07-13T09:01:19;3.40;;;2.30;;
66402;SDS011;53212;52.112;5.144;2023-07-13T09:04:12;3.60;;;1.90;;
66402;SDS011;53212;52.112;5.144;2023-07-13T09:07:07;5.60;;;2.20;;
66402;SDS011;53212;52.112;5.144;2023-07-13T09:12:51;4.10;;;2.20;;
66402;SDS011;53212;52.112;5.144;2023-07-13T09:15:43;2.80;;;2.00;;
66402;SDS011;53212;52.112;5.144;2023-07-13T09:18:16;7.80;;;2.50;;
66402;SDS011;53212;52.112;5.144;2023-07-13T09:20:54;3.60;;;2.60;;
66402;SDS011;53212;52.112;5.144;2023-07-13T09:23:24;3.90;;;2.30;;
66402;SDS011;53212;52.112;5.144;2023-07-13T09:26:01;5.10;;;2.40;;
66402;SDS011;53212;52.112;5.144;2023-07-13T09:28:37;5.70;;;2.30;;
66402;SDS011;53212;52.112;5.144;2023-07-13T09:31:24;2.70;;;1.70;;
66402;SDS011;53212;52.112;5.144;2023-07-13T09:33:57;3.30;;;1.80;;
66402;SDS011;53212;52.112;5.144;2023-07-13T09:36:25;2.80;;;1.90;;
66402;SDS011;53212;52.112;5.144;2023-07-13T09:47:19;5.00;;;2.30;;
66402;SDS011;53212;52.112;5.144;2023-07-13T09:50:06;6.60;;;2.70;;
66402;SDS011;53212;52.112;5.144;2023-07-13T09:52:42;4.70;;;2.60;;
66402;SDS011;53212;52.112;5.144;2023-07-13T09:55:32;4.90;;;2.50;;
66402;SDS011;53212;52.112;5.144;2023-07-13T09:58:09;3.60;;;2.50;;
66402;SDS011;53212;52.112;5.144;2023-07-13T10:00:38;4.40;;;3.00;;
66402;SDS011;53212;52.112;5.144;2023-07-13T10:03:19;4.50;;;2.60;;
66402;SDS011;53212;52.112;5.144;2023-07-13T10:05:48;5.90;;;3.00;;
66402;SDS011;53212;52.112;5.144;2023-07-13T10:08:29;7.20;;;2.70;;
66402;SDS011;53212;52.112;5.144;2023-07-13T10:11:20;5.20;;;2.80;;
66402;SDS011;53212;52.112;5.144;2023-07-13T10:13:56;5.40;;;2.70;;
66402;SDS011;53212;52.112;5.144;2023-07-13T10:16:34;4.10;;;2.80;;
66402;SDS011;53212;52.112;5.144;2023-07-13T10:19:08;5.40;;;2.60;;
66402;SDS011;53212;52.112;5.144;2023-07-13T10:22:02;7.70;;;3.30;;
66402;SDS011;53212;52.112;5.144;2023-07-13T10:24:38;3.00;;;2.20;;
66402;SDS011;53212;52.112;5.144;2023-07-13T10:27:15;5.80;;;2.70;;
66402;SDS011;53212;52.112;5.144;2023-07-13T10:29:48;3.80;;;2.50;;
66402;SDS011;53212;52.112;5.144;2023-07-13T10:32:33;3.20;;;2.40;;
66402;SDS011;53212;52.112;5.144;2023-07-13T10:34:59;6.70;;;2.70;;
66402;SDS011;53212;52.112;5.144;2023-07-13T10:37:30;4.50;;;2.40;;
66402;SDS011;53212;52.112;5.144;2023-07-13T10:40:15;5.30;;;2.20;;
66402;SDS011;53212;52.112;5.144;2023-07-13T10:42:48;3.50;;;2.00;;
66402;SDS011;53212;52.112;5.144;2023-07-13T10:45:19;4.40;;;2.10;;
66402;SDS011;53212;52.112;5.144;2023-07-13T10:47:47;3.80;;;2.00;;
66402;SDS011;53212;52.112;5.144;2023-07-13T10:50:25;3.30;;;2.10;;
66402;SDS011;53212;52.112;5.144;2023-07-13T10:53:17;4.60;;;2.40;;
66402;SDS011;53212;52.112;5.144;2023-07-13T10:58:36;3.60;;;2.20;;
66402;SDS011;53212;52.112;5.144;2023-07-13T11:04:18;5.10;;;2.40;;
66402;SDS011;53212;52.112;5.144;2023-07-13T11:08:57;5.90;;;2.60;;
66402;SDS011;53212;52.112;5.144;2023-07-13T11:11:35;5.80;;;2.60;;
66402;SDS011;53212;52.112;5.144;2023-07-13T11:14:14;5.30;;;2.80;;
66402;SDS011;53212;52.112;5.144;2023-07-13T11:16:51;4.10;;;2.30;;
66402;SDS011;53212;52.112;5.144;2023-07-13T11:27:34;7.30;;;2.30;;
66402;SDS011;53212;52.112;5.144;2023-07-13T11:30:19;5.70;;;2.40;;
66402;SDS011;53212;52.112;5.144;2023-07-13T11:35:59;5.70;;;2.60;;
66402;SDS011;53212;52.112;5.144;2023-07-13T11:40:56;7.30;;;2.50;;
66402;SDS011;53212;52.112;5.144;2023-07-13T11:43:28;5.50;;;2.20;;
66402;SDS011;53212;52.112;5.144;2023-07-13T11:45:54;5.80;;;2.30;;
66402;SDS011;53212;52.112;5.144;2023-07-13T11:48:21;5.30;;;2.50;;
66402;SDS011;53212;52.112;5.144;2023-07-13T11:50:57;6.40;;;2.70;;
66402;SDS011;53212;52.112;5.144;2023-07-13T11:53:27;6.70;;;2.70;;
66402;SDS011;53212;52.112;5.144;2023-07-13T11:55:55;4.40;;;2.30;;
66402;SDS011;53212;52.112;5.144;2023-07-13T11:58:24;6.40;;;2.50;;
66402;SDS011;53212;52.112;5.144;2023-07-13T12:00:50;3.20;;;2.30;;
66402;SDS011;53212;52.112;5.144;2023-07-13T12:03:21;6.10;;;2.10;;
66402;SDS011;53212;52.112;5.144;2023-07-13T12:06:04;3.70;;;2.00;;
66402;SDS011;53212;52.112;5.144;2023-07-13T12:08:31;5.90;;;2.30;;
66402;SDS011;53212;52.112;5.144;2023-07-13T12:11:11;5.50;;;2.40;;
66402;SDS011;53212;52.112;5.144;2023-07-13T12:13:43;5.20;;;2.50;;
66402;SDS011;53212;52.112;5.144;2023-07-13T12:16:12;3.50;;;1.90;;
66402;SDS011;53212;52.112;5.144;2023-07-13T12:18:43;2.90;;;2.10;;
66402;SDS011;53212;52.112;5.144;2023-07-13T12:21:17;4.20;;;1.80;;
66402;SDS011;53212;52.112;5.144;2023-07-13T12:23:44;4.60;;;2.20;;
66402;SDS011;53212;52.112;5.144;2023-07-13T12:26:14;4.90;;;2.30;;
66402;SDS011;53212;52.112;5.144;2023-07-13T12:28:53;2.90;;;2.20;;
66402;SDS011;53212;52.112;5.144;2023-07-13T12:34:10;5.30;;;2.20;;
66402;SDS011;53212;52.112;5.144;2023-07-13T12:36:48;2.90;;;2.10;;
66402;SDS011;53212;52.112;5.144;2023-07-13T12:39:27;5.00;;;2.30;;
66402;SDS011;53212;52.112;5.144;2023-07-13T12:41:53;5.60;;;2.50;;
66402;SDS011;53212;52.112;5.144;2023-07-13T12:44:29;3.70;;;2.40;;
66402;SDS011;53212;52.112;5.144;2023-07-13T12:47:11;4.20;;;2.30;;
66402;SDS011;53212;52.112;5.144;2023-07-13T12:49:47;3.00;;;1.90;;
66402;SDS011;53212;52.112;5.144;2023-07-13T12:52:42;4.10;;;2.30;;
66402;SDS011;53212;52.112;5.144;2023-07-13T12:55:15;3.60;;;2.20;;
66402;SDS011;53212;52.112;5.144;2023-07-13T12:58:13;3.70;;;1.90;;
66402;SDS011;53212;52.112;5.144;2023-07-13T13:00:48;2.20;;;1.60;;
66402;SDS011;53212;52.112;5.144;2023-07-13T13:03:32;2.90;;;2.00;;
66402;SDS011;53212;52.112;5.144;2023-07-13T13:08:40;5.60;;;2.60;;
66402;SDS011;53212;52.112;5.144;2023-07-13T13:11:08;3.00;;;1.90;;
66402;SDS011;53212;52.112;5.144;2023-07-13T13:13:34;4.10;;;2.10;;
66402;SDS011;53212;52.112;5.144;2023-07-13T13:16:21;6.00;;;1.90;;
66402;SDS011;53212;52.112;5.144;2023-07-13T13:18:50;5.20;;;2.00;;
66402;SDS011;53212;52.112;5.144;2023-07-13T13:21:18;3.50;;;2.60;;
66402;SDS011;53212;52.112;5.144;2023-07-13T13:23:44;4.10;;;2.10;;
66402;SDS011;53212;52.112;5.144;2023-07-13T13:26:15;3.30;;;2.10;;
66402;SDS011;53212;52.112;5.144;2023-07-13T13:28:44;3.50;;;2.00;;
66402;SDS011;53212;52.112;5.144;2023-07-13T13:31:11;5.60;;;2.60;;
66402;SDS011;53212;52.112;5.144;2023-07-13T13:33:38;6.00;;;2.30;;
66402;SDS011;53212;52.112;5.144;2023-07-13T13:36:20;5.20;;;2.20;;
66402;SDS011;53212;52.112;5.144;2023-07-13T13:38:49;2.40;;;1.90;;
66402;SDS011;53212;52.112;5.144;2023-07-13T13:41:16;3.00;;;2.00;;
66402;SDS011;53212;52.112;5.144;2023-07-13T13:43:42;6.20;;;2.00;;
66402;SDS011;53212;52.112;5.144;2023-07-13T13:46:21;5.20;;;2.30;;
66402;SDS011;53212;52.112;5.144;2023-07-13T13:48:50;4.30;;;2.30;;
66402;SDS011;53212;52.112;5.144;2023-07-13T13:51:21;3.70;;;2.40;;
66402;SDS011;53212;52.112;5.144;2023-07-13T13:53:48;3.40;;;2.00;;
66402;SDS011;53212;52.112;5.144;2023-07-13T13:56:15;3.90;;;2.50;;
66402;SDS011;53212;52.112;5.144;2023-07-13T13:58:42;3.20;;;2.00;;
66402;SDS011;53212;52.112;5.144;2023-07-13T14:01:26;2.80;;;1.70;;
66402;SDS011;53212;52.112;5.144;2023-07-13T14:03:52;3.60;;;2.00;;
66402;SDS011;53212;52.112;5.144;2023-07-13T14:06:18;2.40;;;2.10;;
66402;SDS011;53212;52.112;5.144;2023-07-13T14:08:43;6.10;;;2.10;;
66402;SDS011;53212;52.112;5.144;2023-07-13T14:11:18;4.80;;;1.90;;
66402;SDS011;53212;52.112;5.144;2023-07-13T14:13:57;3.00;;;1.80;;
66402;SDS011;53212;52.112;5.144;2023-07-13T14:16:29;4.10;;;1.90;;
66402;SDS011;53212;52.112;5.144;2023-07-13T14:18:57;2.10;;;1.80;;
66402;SDS011;53212;52.112;5.144;2023-07-13T14:21:26;3.80;;;2.00;;
66402;SDS011;53212;52.112;5.144;2023-07-13T14:23:53;4.40;;;2.00;;
66402;SDS011;53212;52.112;5.144;2023-07-13T14:26:25;3.40;;;1.90;;
66402;SDS011;53212;52.112;5.144;2023-07-13T14:28:56;3.90;;;2.00;;
66402;SDS011;53212;52.112;5.144;2023-07-13T14:31:24;3.00;;;2.00;;
66402;SDS011;53212;52.112;5.144;2023-07-13T14:33:50;3.10;;;1.80;;
66402;SDS011;53212;52.112;5.144;2023-07-13T14:36:31;3.20;;;1.90;;
66402;SDS011;53212;52.112;5.144;2023-07-13T14:39:00;3.80;;;1.80;;
66402;SDS011;53212;52.112;5.144;2023-07-13T14:41:34;4.50;;;2.00;;
66402;SDS011;53212;52.112;5.144;2023-07-13T14:43:59;4.30;;;1.90;;
66402;SDS011;53212;52.112;5.144;2023-07-13T14:46:30;4.30;;;2.20;;
66402;SDS011;53212;52.112;5.144;2023-07-13T14:49:24;4.20;;;1.80;;
66402;SDS011;53212;52.112;5.144;2023-07-13T14:51:56;3.20;;;1.90;;
66402;SDS011;53212;52.112;5.144;2023-07-13T14:54:23;4.40;;;1.80;;
66402;SDS011;53212;52.112;5.144;2023-07-13T14:56:49;3.60;;;1.90;;
66402;SDS011;53212;52.112;5.144;2023-07-13T14:59:15;3.90;;;2.20;;
66402;SDS011;53212;52.112;5.144;2023-07-13T15:01:43;3.00;;;1.90;;
66402;SDS011;53212;52.112;5.144;2023-07-13T15:04:09;7.30;;;2.40;;
66402;SDS011;53212;52.112;5.144;2023-07-13T15:06:59;5.30;;;2.10;;
66402;SDS011;53212;52.112;5.144;2023-07-13T15:09:28;3.70;;;1.50;;
66402;SDS011;53212;52.112;5.144;2023-07-13T15:11:57;2.50;;;1.80;;
66402;SDS011;53212;52.112;5.144;2023-07-13T15:14:24;3.70;;;1.70;;
66402;SDS011;53212;52.112;5.144;2023-07-13T15:16:51;5.20;;;1.90;;
66402;SDS011;53212;52.112;5.144;2023-07-13T15:19:19;5.10;;;1.70;;
66402;SDS011;53212;52.112;5.144;2023-07-13T15:21:46;3.50;;;1.70;;
66402;SDS011;53212;52.112;5.144;2023-07-13T15:24:13;2.10;;;1.60;;
66402;SDS011;53212;52.112;5.144;2023-07-13T15:26:40;2.20;;;1.70;;
66402;SDS011;53212;52.112;5.144;2023-07-13T15:29:10;3.50;;;1.70;;
66402;SDS011;53212;52.112;5.144;2023-07-13T15:31:36;1.90;;;1.70;;
66402;SDS011;53212;52.112;5.144;2023-07-13T15:34:04;2.90;;;1.40;;
66402;SDS011;53212;52.112;5.144;2023-07-13T15:36:37;4.50;;;1.80;;
66402;SDS011;53212;52.112;5.144;2023-07-13T15:39:03;2.60;;;1.70;;